sensor_id;sensor_type;location;lat;lon;timestamp;P1;durP1;ratioP1;P2;durP2;ratioP2
18166;SDS011;9208;42.688;23.404;2023-02-15T00:01:44;28.37;;;21.67;;
18166;SDS011;9208;42.688;23.404;2023-02-15T00:04:13;28.17;;;22.10;;
18166;SDS011;9208;42.688;23.404;2023-02-15T00:06:40;33.40;;;22.13;;
18166;SDS011;9208;42.688;23.404;2023-02-15T00:09:06;30.87;;;22.83;;
18166;SDS011;9208;42.688;23.404;2023-02-15T00:11:31;30.17;;;23.33;;
18166;SDS011;9208;42.688;23.404;2023-02-15T00:14:23;33.07;;;22.70;;
18166;SDS011;9208;42.688;23.404;2023-02-15T00:16:49;35.10;;;24.30;;
18166;SDS011;9208;42.688;23.404;2023-02-15T00:19:17;30.67;;;23.40;;
18166;SDS011;9208;42.688;23.404;2023-02-15T00:21:44;32.73;;;23.07;;
18166;SDS011;9208;42.688;23.404;2023-02-15T00:24:10;31.50;;;22.53;;
18166;SDS011;9208;42.688;23.404;2023-02-15T00:26:38;32.13;;;23.03;;
18166;SDS011;9208;42.688;23.404;2023-02-15T00:29:05;29.33;;;22.30;;
18166;SDS011;9208;42.688;23.404;2023-02-15T00:31:31;31.77;;;23.87;;
18166;SDS011;9208;42.688;23.404;2023-02-15T00:36:53;29.77;;;23.17;;
18166;SDS011;9208;42.688;23.404;2023-02-15T00:39:19;33.80;;;23.70;;
18166;SDS011;9208;42.688;23.404;2023-02-15T00:41:45;32.00;;;23.00;;
18166;SDS011;9208;42.688;23.404;2023-02-15T00:44:12;32.77;;;23.33;;
18166;SDS011;9208;42.688;23.404;2023-02-15T00:46:38;30.60;;;23.93;;
18166;SDS011;9208;42.688;23.404;2023-02-15T00:49:04;31.90;;;23.23;;
18166;SDS011;9208;42.688;23.404;2023-02-15T00:51:30;29.27;;;22.10;;
18166;SDS011;9208;42.688;23.404;2023-02-15T00:53:56;31.27;;;23.20;;
18166;SDS011;9208;42.688;23.404;2023-02-15T00:56:25;31.47;;;22.50;;
18166;SDS011;9208;42.688;23.404;2023-02-15T00:58:50;30.47;;;22.60;;
18166;SDS011;9208;42.688;23.404;2023-02-15T01:01:17;32.50;;;23.83;;
18166;SDS011;9208;42.688;23.404;2023-02-15T01:03:44;32.93;;;23.63;;
18166;SDS011;9208;42.688;23.404;2023-02-15T01:06:11;34.80;;;24.33;;
18166;SDS011;9208;42.688;23.404;2023-02-15T01:08:38;33.17;;;22.57;;
18166;SDS011;9208;42.688;23.404;2023-02-15T01:11:08;32.10;;;23.27;;
18166;SDS011;9208;42.688;23.404;2023-02-15T01:13:39;29.93;;;22.63;;
18166;SDS011;9208;42.688;23.404;2023-02-15T01:16:05;30.90;;;23.33;;
18166;SDS011;9208;42.688;23.404;2023-02-15T01:18:31;32.90;;;23.07;;
18166;SDS011;9208;42.688;23.404;2023-02-15T01:20:57;34.77;;;23.20;;
18166;SDS011;9208;42.688;23.404;2023-02-15T01:23:23;32.20;;;22.57;;
18166;SDS011;9208;42.688;23.404;2023-02-15T01:25:48;33.40;;;23.60;;
18166;SDS011;9208;42.688;23.404;2023-02-15T01:28:14;31.70;;;22.67;;
18166;SDS011;9208;42.688;23.404;2023-02-15T01:30:39;33.47;;;23.57;;
18166;SDS011;9208;42.688;23.404;2023-02-15T01:33:05;30.50;;;22.10;;
18166;SDS011;9208;42.688;23.404;2023-02-15T01:35:31;32.10;;;21.30;;
18166;SDS011;9208;42.688;23.404;2023-02-15T01:37:57;33.30;;;23.03;;
18166;SDS011;9208;42.688;23.404;2023-02-15T01:40:23;28.17;;;21.20;;
18166;SDS011;9208;42.688;23.404;2023-02-15T01:42:52;30.07;;;22.37;;
18166;SDS011;9208;42.688;23.404;2023-02-15T01:47:51;30.87;;;22.43;;
18166;SDS011;9208;42.688;23.404;2023-02-15T01:52:57;28.93;;;21.23;;
18166;SDS011;9208;42.688;23.404;2023-02-15T01:55:27;28.20;;;21.00;;
18166;SDS011;9208;42.688;23.404;2023-02-15T01:57:58;29.33;;;21.40;;
18166;SDS011;9208;42.688;23.404;2023-02-15T02:00:24;29.33;;;21.27;;
18166;SDS011;9208;42.688;23.404;2023-02-15T02:02:51;29.43;;;20.43;;
18166;SDS011;9208;42.688;23.404;2023-02-15T02:05:20;27.70;;;20.60;;
18166;SDS011;9208;42.688;23.404;2023-02-15T02:07:45;28.87;;;21.63;;
18166;SDS011;9208;42.688;23.404;2023-02-15T02:10:15;28.13;;;21.27;;
18166;SDS011;9208;42.688;23.404;2023-02-15T02:12:42;28.73;;;20.83;;
18166;SDS011;9208;42.688;23.404;2023-02-15T02:15:10;28.00;;;20.83;;
18166;SDS011;9208;42.688;23.404;2023-02-15T02:23:09;29.40;;;21.47;;
18166;SDS011;9208;42.688;23.404;2023-02-15T02:34:16;31.40;;;21.83;;
18166;SDS011;9208;42.688;23.404;2023-02-15T02:36:50;33.43;;;22.90;;
18166;SDS011;9208;42.688;23.404;2023-02-15T02:42:25;31.63;;;21.70;;
18166;SDS011;9208;42.688;23.404;2023-02-15T02:45:02;31.23;;;22.53;;
18166;SDS011;9208;42.688;23.404;2023-02-15T02:47:36;29.63;;;21.80;;
18166;SDS011;9208;42.688;23.404;2023-02-15T02:50:11;28.27;;;20.97;;
18166;SDS011;9208;42.688;23.404;2023-02-15T02:52:47;26.80;;;21.10;;
18166;SDS011;9208;42.688;23.404;2023-02-15T02:55:35;27.67;;;20.60;;
18166;SDS011;9208;42.688;23.404;2023-02-15T02:58:17;26.70;;;20.60;;
18166;SDS011;9208;42.688;23.404;2023-02-15T03:01:06;26.20;;;21.13;;
18166;SDS011;9208;42.688;23.404;2023-02-15T03:03:39;29.17;;;19.93;;
18166;SDS011;9208;42.688;23.404;2023-02-15T03:06:10;27.20;;;20.43;;
18166;SDS011;9208;42.688;23.404;2023-02-15T03:08:43;26.57;;;20.37;;
18166;SDS011;9208;42.688;23.404;2023-02-15T03:11:13;30.27;;;22.73;;
18166;SDS011;9208;42.688;23.404;2023-02-15T03:13:39;27.17;;;20.50;;
18166;SDS011;9208;42.688;23.404;2023-02-15T03:16:05;28.17;;;20.63;;
18166;SDS011;9208;42.688;23.404;2023-02-15T03:21:34;27.20;;;20.50;;
18166;SDS011;9208;42.688;23.404;2023-02-15T03:24:08;27.80;;;21.13;;
18166;SDS011;9208;42.688;23.404;2023-02-15T03:26:37;28.67;;;20.43;;
18166;SDS011;9208;42.688;23.404;2023-02-15T03:29:05;30.77;;;21.00;;
18166;SDS011;9208;42.688;23.404;2023-02-15T03:31:33;25.77;;;20.03;;
18166;SDS011;9208;42.688;23.404;2023-02-15T03:34:03;31.47;;;21.63;;
18166;SDS011;9208;42.688;23.404;2023-02-15T03:36:42;27.50;;;20.70;;
18166;SDS011;9208;42.688;23.404;2023-02-15T03:44:30;28.10;;;20.33;;
18166;SDS011;9208;42.688;23.404;2023-02-15T03:47:11;25.67;;;19.17;;
18166;SDS011;9208;42.688;23.404;2023-02-15T03:49:45;27.93;;;20.40;;
18166;SDS011;9208;42.688;23.404;2023-02-15T03:52:18;28.50;;;20.03;;
18166;SDS011;9208;42.688;23.404;2023-02-15T03:54:45;24.83;;;20.13;;
18166;SDS011;9208;42.688;23.404;2023-02-15T03:57:29;27.03;;;20.13;;
18166;SDS011;9208;42.688;23.404;2023-02-15T04:00:14;24.23;;;19.47;;
18166;SDS011;9208;42.688;23.404;2023-02-15T04:05:36;25.77;;;19.30;;
18166;SDS011;9208;42.688;23.404;2023-02-15T04:08:02;26.97;;;20.07;;
18166;SDS011;9208;42.688;23.404;2023-02-15T04:10:27;25.17;;;18.80;;
18166;SDS011;9208;42.688;23.404;2023-02-15T04:13:11;25.67;;;18.63;;
18166;SDS011;9208;42.688;23.404;2023-02-15T04:15:37;26.43;;;19.80;;
18166;SDS011;9208;42.688;23.404;2023-02-15T04:18:21;28.20;;;19.90;;
18166;SDS011;9208;42.688;23.404;2023-02-15T04:20:46;26.23;;;18.63;;
18166;SDS011;9208;42.688;23.404;2023-02-15T04:23:31;25.40;;;19.60;;
18166;SDS011;9208;42.688;23.404;2023-02-15T04:26:14;24.53;;;18.13;;
18166;SDS011;9208;42.688;23.404;2023-02-15T04:28:40;23.40;;;17.83;;
18166;SDS011;9208;42.688;23.404;2023-02-15T04:31:06;25.93;;;18.63;;
18166;SDS011;9208;42.688;23.404;2023-02-15T04:33:31;24.23;;;18.27;;
18166;SDS011;9208;42.688;23.404;2023-02-15T04:35:56;27.57;;;20.33;;
18166;SDS011;9208;42.688;23.404;2023-02-15T04:38:22;27.13;;;19.90;;
18166;SDS011;9208;42.688;23.404;2023-02-15T04:40:51;25.03;;;20.07;;
18166;SDS011;9208;42.688;23.404;2023-02-15T04:43:18;24.93;;;19.73;;
18166;SDS011;9208;42.688;23.404;2023-02-15T04:45:47;27.73;;;20.23;;
18166;SDS011;9208;42.688;23.404;2023-02-15T04:48:16;23.90;;;18.20;;
18166;SDS011;9208;42.688;23.404;2023-02-15T04:50:43;25.17;;;19.47;;
18166;SDS011;9208;42.688;23.404;2023-02-15T04:53:09;25.90;;;19.57;;
18166;SDS011;9208;42.688;23.404;2023-02-15T04:55:35;26.00;;;19.50;;
18166;SDS011;9208;42.688;23.404;2023-02-15T04:58:01;24.97;;;19.00;;
18166;SDS011;9208;42.688;23.404;2023-02-15T05:00:26;27.17;;;20.53;;
18166;SDS011;9208;42.688;23.404;2023-02-15T05:02:52;25.20;;;18.70;;
18166;SDS011;9208;42.688;23.404;2023-02-15T05:05:18;26.13;;;20.17;;
18166;SDS011;9208;42.688;23.404;2023-02-15T05:07:43;25.77;;;19.83;;
18166;SDS011;9208;42.688;23.404;2023-02-15T05:10:09;25.17;;;19.43;;
18166;SDS011;9208;42.688;23.404;2023-02-15T05:12:34;27.17;;;19.80;;
18166;SDS011;9208;42.688;23.404;2023-02-15T05:15:00;28.10;;;19.47;;
18166;SDS011;9208;42.688;23.404;2023-02-15T05:17:25;29.20;;;20.50;;
18166;SDS011;9208;42.688;23.404;2023-02-15T05:19:50;26.00;;;20.00;;
18166;SDS011;9208;42.688;23.404;2023-02-15T05:22:16;26.93;;;20.77;;
18166;SDS011;9208;42.688;23.404;2023-02-15T05:24:41;24.77;;;19.17;;
18166;SDS011;9208;42.688;23.404;2023-02-15T05:27:25;24.83;;;18.57;;
18166;SDS011;9208;42.688;23.404;2023-02-15T05:30:09;26.63;;;19.57;;
18166;SDS011;9208;42.688;23.404;2023-02-15T05:32:37;26.73;;;19.67;;
18166;SDS011;9208;42.688;23.404;2023-02-15T05:35:03;27.87;;;20.10;;
18166;SDS011;9208;42.688;23.404;2023-02-15T05:37:29;27.30;;;21.10;;
18166;SDS011;9208;42.688;23.404;2023-02-15T05:39:55;26.63;;;21.53;;
18166;SDS011;9208;42.688;23.404;2023-02-15T05:42:20;32.83;;;23.33;;
18166;SDS011;9208;42.688;23.404;2023-02-15T05:44:46;28.23;;;20.83;;
18166;SDS011;9208;42.688;23.404;2023-02-15T05:47:11;27.97;;;20.53;;
18166;SDS011;9208;42.688;23.404;2023-02-15T05:49:36;27.73;;;20.17;;
18166;SDS011;9208;42.688;23.404;2023-02-15T05:52:02;25.53;;;19.37;;
18166;SDS011;9208;42.688;23.404;2023-02-15T05:54:28;24.43;;;18.83;;
18166;SDS011;9208;42.688;23.404;2023-02-15T05:56:53;27.90;;;19.53;;
18166;SDS011;9208;42.688;23.404;2023-02-15T05:59:19;28.67;;;20.07;;
18166;SDS011;9208;42.688;23.404;2023-02-15T06:01:44;25.27;;;18.90;;
18166;SDS011;9208;42.688;23.404;2023-02-15T06:04:10;26.77;;;18.83;;
18166;SDS011;9208;42.688;23.404;2023-02-15T06:06:35;27.07;;;20.10;;
18166;SDS011;9208;42.688;23.404;2023-02-15T06:09:01;26.57;;;20.03;;
18166;SDS011;9208;42.688;23.404;2023-02-15T06:11:27;28.57;;;19.20;;
18166;SDS011;9208;42.688;23.404;2023-02-15T06:13:52;27.87;;;20.03;;
18166;SDS011;9208;42.688;23.404;2023-02-15T06:16:17;24.80;;;18.97;;
18166;SDS011;9208;42.688;23.404;2023-02-15T06:18:43;26.40;;;19.87;;
18166;SDS011;9208;42.688;23.404;2023-02-15T06:21:08;24.57;;;18.53;;
18166;SDS011;9208;42.688;23.404;2023-02-15T06:23:34;22.17;;;18.07;;
18166;SDS011;9208;42.688;23.404;2023-02-15T06:25:59;25.33;;;19.23;;
18166;SDS011;9208;42.688;23.404;2023-02-15T06:28:25;26.63;;;18.67;;
18166;SDS011;9208;42.688;23.404;2023-02-15T06:30:50;29.40;;;20.63;;
18166;SDS011;9208;42.688;23.404;2023-02-15T06:33:17;26.00;;;19.43;;
18166;SDS011;9208;42.688;23.404;2023-02-15T06:35:42;23.73;;;17.87;;
18166;SDS011;9208;42.688;23.404;2023-02-15T06:38:08;25.50;;;19.80;;
18166;SDS011;9208;42.688;23.404;2023-02-15T06:40:33;28.60;;;21.03;;
18166;SDS011;9208;42.688;23.404;2023-02-15T06:42:59;30.50;;;21.97;;
18166;SDS011;9208;42.688;23.404;2023-02-15T06:45:24;27.87;;;20.37;;
18166;SDS011;9208;42.688;23.404;2023-02-15T06:47:50;25.97;;;18.77;;
18166;SDS011;9208;42.688;23.404;2023-02-15T06:50:15;24.80;;;18.77;;
18166;SDS011;9208;42.688;23.404;2023-02-15T06:52:40;22.90;;;17.23;;
18166;SDS011;9208;42.688;23.404;2023-02-15T06:55:06;24.43;;;17.77;;
18166;SDS011;9208;42.688;23.404;2023-02-15T06:57:32;24.87;;;18.73;;
18166;SDS011;9208;42.688;23.404;2023-02-15T06:59:58;25.77;;;18.93;;
18166;SDS011;9208;42.688;23.404;2023-02-15T07:02:23;25.63;;;18.43;;
18166;SDS011;9208;42.688;23.404;2023-02-15T07:04:49;24.87;;;19.13;;
18166;SDS011;9208;42.688;23.404;2023-02-15T07:07:14;25.73;;;19.60;;
18166;SDS011;9208;42.688;23.404;2023-02-15T07:09:40;27.77;;;19.47;;
18166;SDS011;9208;42.688;23.404;2023-02-15T07:12:05;31.63;;;21.00;;
18166;SDS011;9208;42.688;23.404;2023-02-15T07:14:50;27.30;;;20.67;;
18166;SDS011;9208;42.688;23.404;2023-02-15T07:17:16;28.07;;;20.23;;
18166;SDS011;9208;42.688;23.404;2023-02-15T07:19:42;31.40;;;20.03;;
18166;SDS011;9208;42.688;23.404;2023-02-15T07:22:08;28.50;;;20.70;;
18166;SDS011;9208;42.688;23.404;2023-02-15T07:24:33;25.67;;;19.63;;
18166;SDS011;9208;42.688;23.404;2023-02-15T07:26:58;25.23;;;19.33;;
18166;SDS011;9208;42.688;23.404;2023-02-15T07:29:24;25.67;;;20.03;;
18166;SDS011;9208;42.688;23.404;2023-02-15T07:31:50;27.70;;;19.27;;
18166;SDS011;9208;42.688;23.404;2023-02-15T07:34:15;27.07;;;20.00;;
18166;SDS011;9208;42.688;23.404;2023-02-15T07:36:41;26.07;;;19.33;;
18166;SDS011;9208;42.688;23.404;2023-02-15T07:39:08;25.53;;;19.67;;
18166;SDS011;9208;42.688;23.404;2023-02-15T07:41:34;26.97;;;18.37;;
18166;SDS011;9208;42.688;23.404;2023-02-15T07:44:00;23.63;;;17.90;;
18166;SDS011;9208;42.688;23.404;2023-02-15T07:46:25;25.83;;;19.77;;
18166;SDS011;9208;42.688;23.404;2023-02-15T07:48:50;22.93;;;18.30;;
18166;SDS011;9208;42.688;23.404;2023-02-15T07:51:16;26.53;;;17.83;;
18166;SDS011;9208;42.688;23.404;2023-02-15T07:53:42;23.63;;;17.60;;
18166;SDS011;9208;42.688;23.404;2023-02-15T07:56:11;23.30;;;16.87;;
18166;SDS011;9208;42.688;23.404;2023-02-15T07:58:37;22.97;;;16.97;;
18166;SDS011;9208;42.688;23.404;2023-02-15T08:01:16;21.10;;;16.27;;
18166;SDS011;9208;42.688;23.404;2023-02-15T08:03:42;22.47;;;16.53;;
18166;SDS011;9208;42.688;23.404;2023-02-15T08:06:08;22.63;;;16.57;;
18166;SDS011;9208;42.688;23.404;2023-02-15T08:08:33;23.07;;;17.40;;
18166;SDS011;9208;42.688;23.404;2023-02-15T08:11:04;21.73;;;16.47;;
18166;SDS011;9208;42.688;23.404;2023-02-15T08:14:01;20.77;;;16.33;;
18166;SDS011;9208;42.688;23.404;2023-02-15T08:21:32;20.53;;;16.93;;
18166;SDS011;9208;42.688;23.404;2023-02-15T08:23:59;20.93;;;15.63;;
18166;SDS011;9208;42.688;23.404;2023-02-15T08:26:25;24.03;;;18.07;;
18166;SDS011;9208;42.688;23.404;2023-02-15T08:28:52;24.37;;;17.30;;
18166;SDS011;9208;42.688;23.404;2023-02-15T08:31:19;21.33;;;16.43;;
18166;SDS011;9208;42.688;23.404;2023-02-15T08:33:45;25.80;;;18.07;;
18166;SDS011;9208;42.688;23.404;2023-02-15T08:36:13;21.77;;;17.00;;
18166;SDS011;9208;42.688;23.404;2023-02-15T08:38:40;19.93;;;16.07;;
18166;SDS011;9208;42.688;23.404;2023-02-15T08:41:20;22.60;;;17.70;;
18166;SDS011;9208;42.688;23.404;2023-02-15T08:43:51;22.80;;;17.30;;
18166;SDS011;9208;42.688;23.404;2023-02-15T08:46:18;21.67;;;17.07;;
18166;SDS011;9208;42.688;23.404;2023-02-15T08:48:49;21.57;;;16.53;;
18166;SDS011;9208;42.688;23.404;2023-02-15T08:51:15;23.00;;;18.47;;
18166;SDS011;9208;42.688;23.404;2023-02-15T08:53:44;25.20;;;17.87;;
18166;SDS011;9208;42.688;23.404;2023-02-15T08:56:13;22.47;;;17.03;;
18166;SDS011;9208;42.688;23.404;2023-02-15T08:58:40;21.40;;;16.73;;
18166;SDS011;9208;42.688;23.404;2023-02-15T09:01:12;20.97;;;17.00;;
18166;SDS011;9208;42.688;23.404;2023-02-15T09:03:43;21.67;;;16.47;;
18166;SDS011;9208;42.688;23.404;2023-02-15T09:06:09;20.63;;;16.77;;
18166;SDS011;9208;42.688;23.404;2023-02-15T09:08:36;23.53;;;15.83;;
18166;SDS011;9208;42.688;23.404;2023-02-15T09:11:35;22.60;;;16.23;;
18166;SDS011;9208;42.688;23.404;2023-02-15T09:13:55;28.20;;;16.37;;
18166;SDS011;9208;42.688;23.404;2023-02-15T09:16:23;22.10;;;15.87;;
18166;SDS011;9208;42.688;23.404;2023-02-15T09:18:50;19.57;;;15.07;;
18166;SDS011;9208;42.688;23.404;2023-02-15T09:21:17;21.37;;;16.10;;
18166;SDS011;9208;42.688;23.404;2023-02-15T09:23:48;16.27;;;13.87;;
18166;SDS011;9208;42.688;23.404;2023-02-15T09:26:16;19.03;;;13.70;;
18166;SDS011;9208;42.688;23.404;2023-02-15T09:28:43;17.50;;;13.33;;
18166;SDS011;9208;42.688;23.404;2023-02-15T09:33:46;18.73;;;13.73;;
18166;SDS011;9208;42.688;23.404;2023-02-15T09:36:23;23.50;;;14.17;;
18166;SDS011;9208;42.688;23.404;2023-02-15T09:39:01;20.73;;;14.73;;
18166;SDS011;9208;42.688;23.404;2023-02-15T09:47:08;16.73;;;14.07;;
18166;SDS011;9208;42.688;23.404;2023-02-15T10:03:42;18.63;;;14.03;;
18166;SDS011;9208;42.688;23.404;2023-02-15T10:06:59;18.80;;;14.60;;
18166;SDS011;9208;42.688;23.404;2023-02-15T10:09:09;16.70;;;14.07;;
18166;SDS011;9208;42.688;23.404;2023-02-15T10:12:01;16.67;;;14.50;;
18166;SDS011;9208;42.688;23.404;2023-02-15T10:28:17;17.90;;;14.00;;
18166;SDS011;9208;42.688;23.404;2023-02-15T10:39:08;19.07;;;14.40;;
18166;SDS011;9208;42.688;23.404;2023-02-15T10:41:53;17.00;;;14.10;;
18166;SDS011;9208;42.688;23.404;2023-02-15T10:47:46;15.70;;;13.07;;
18166;SDS011;9208;42.688;23.404;2023-02-15T10:50:16;16.90;;;14.00;;
18166;SDS011;9208;42.688;23.404;2023-02-15T10:52:50;19.03;;;15.03;;
18166;SDS011;9208;42.688;23.404;2023-02-15T11:06:23;21.50;;;15.50;;
18166;SDS011;9208;42.688;23.404;2023-02-15T11:08:54;19.20;;;15.70;;
18166;SDS011;9208;42.688;23.404;2023-02-15T11:11:24;19.20;;;15.57;;
18166;SDS011;9208;42.688;23.404;2023-02-15T11:13:57;19.10;;;15.53;;
18166;SDS011;9208;42.688;23.404;2023-02-15T11:16:44;18.57;;;15.60;;
18166;SDS011;9208;42.688;23.404;2023-02-15T11:19:17;21.80;;;15.63;;
18166;SDS011;9208;42.688;23.404;2023-02-15T11:21:51;18.50;;;15.03;;
18166;SDS011;9208;42.688;23.404;2023-02-15T11:24:20;20.73;;;15.63;;
18166;SDS011;9208;42.688;23.404;2023-02-15T11:26:46;20.50;;;15.87;;
18166;SDS011;9208;42.688;23.404;2023-02-15T11:29:35;22.60;;;15.53;;
18166;SDS011;9208;42.688;23.404;2023-02-15T11:34:54;25.70;;;16.80;;
18166;SDS011;9208;42.688;23.404;2023-02-15T11:40:33;21.17;;;16.23;;
18166;SDS011;9208;42.688;23.404;2023-02-15T11:43:11;21.20;;;15.40;;
18166;SDS011;9208;42.688;23.404;2023-02-15T11:45:42;21.20;;;16.57;;
18166;SDS011;9208;42.688;23.404;2023-02-15T11:48:11;19.43;;;15.83;;
18166;SDS011;9208;42.688;23.404;2023-02-15T11:50:39;20.33;;;16.23;;
18166;SDS011;9208;42.688;23.404;2023-02-15T11:55:57;23.17;;;20.48;;
18166;SDS011;9208;42.688;23.404;2023-02-15T12:01:02;20.23;;;15.33;;
18166;SDS011;9208;42.688;23.404;2023-02-15T12:06:41;21.23;;;16.40;;
18166;SDS011;9208;42.688;23.404;2023-02-15T12:09:55;19.10;;;16.50;;
18166;SDS011;9208;42.688;23.404;2023-02-15T12:12:20;21.97;;;16.53;;
18166;SDS011;9208;42.688;23.404;2023-02-15T12:14:56;23.63;;;16.17;;
18166;SDS011;9208;42.688;23.404;2023-02-15T12:17:27;20.77;;;15.73;;
18166;SDS011;9208;42.688;23.404;2023-02-15T12:19:56;19.07;;;16.00;;
18166;SDS011;9208;42.688;23.404;2023-02-15T12:22:29;20.23;;;15.50;;
18166;SDS011;9208;42.688;23.404;2023-02-15T12:25:01;20.53;;;15.60;;
18166;SDS011;9208;42.688;23.404;2023-02-15T12:27:42;20.73;;;16.47;;
18166;SDS011;9208;42.688;23.404;2023-02-15T12:30:18;19.53;;;15.93;;
18166;SDS011;9208;42.688;23.404;2023-02-15T12:32:48;20.97;;;16.57;;
18166;SDS011;9208;42.688;23.404;2023-02-15T12:35:36;18.40;;;15.90;;
18166;SDS011;9208;42.688;23.404;2023-02-15T12:40:34;20.47;;;16.53;;
18166;SDS011;9208;42.688;23.404;2023-02-15T12:43:00;21.38;;;19.05;;
18166;SDS011;9208;42.688;23.404;2023-02-15T12:45:33;22.83;;;17.27;;
18166;SDS011;9208;42.688;23.404;2023-02-15T12:48:12;20.70;;;17.20;;
18166;SDS011;9208;42.688;23.404;2023-02-15T12:50:43;24.67;;;17.13;;
18166;SDS011;9208;42.688;23.404;2023-02-15T12:53:20;24.30;;;17.30;;
18166;SDS011;9208;42.688;23.404;2023-02-15T12:56:04;19.47;;;15.57;;
18166;SDS011;9208;42.688;23.404;2023-02-15T12:58:40;20.90;;;16.40;;
18166;SDS011;9208;42.688;23.404;2023-02-15T13:03:38;21.97;;;15.23;;
18166;SDS011;9208;42.688;23.404;2023-02-15T13:06:19;18.67;;;14.87;;
18166;SDS011;9208;42.688;23.404;2023-02-15T13:08:46;18.00;;;14.57;;
18166;SDS011;9208;42.688;23.404;2023-02-15T13:11:15;20.53;;;16.17;;
18166;SDS011;9208;42.688;23.404;2023-02-15T13:13:50;21.17;;;16.17;;
18166;SDS011;9208;42.688;23.404;2023-02-15T13:16:16;19.50;;;15.53;;
18166;SDS011;9208;42.688;23.404;2023-02-15T13:18:50;19.87;;;15.00;;
18166;SDS011;9208;42.688;23.404;2023-02-15T13:21:18;20.63;;;15.13;;
18166;SDS011;9208;42.688;23.404;2023-02-15T13:26:32;19.10;;;15.63;;
18166;SDS011;9208;42.688;23.404;2023-02-15T13:29:03;17.80;;;14.93;;
18166;SDS011;9208;42.688;23.404;2023-02-15T13:31:33;20.63;;;15.43;;
18166;SDS011;9208;42.688;23.404;2023-02-15T13:47:56;17.23;;;14.03;;
18166;SDS011;9208;42.688;23.404;2023-02-15T13:56:29;19.20;;;14.97;;
18166;SDS011;9208;42.688;23.404;2023-02-15T14:19:09;18.17;;;15.77;;
18166;SDS011;9208;42.688;23.404;2023-02-15T14:24:42;20.43;;;16.10;;
18166;SDS011;9208;42.688;23.404;2023-02-15T14:27:26;34.80;;;18.03;;
18166;SDS011;9208;42.688;23.404;2023-02-15T14:30:03;21.70;;;15.40;;
18166;SDS011;9208;42.688;23.404;2023-02-15T14:32:51;16.57;;;14.10;;
18166;SDS011;9208;42.688;23.404;2023-02-15T14:35:20;17.90;;;14.73;;
18166;SDS011;9208;42.688;23.404;2023-02-15T14:49:23;20.03;;;14.67;;
18166;SDS011;9208;42.688;23.404;2023-02-15T14:59:46;19.40;;;15.57;;
18166;SDS011;9208;42.688;23.404;2023-02-15T15:02:18;17.77;;;15.23;;
18166;SDS011;9208;42.688;23.404;2023-02-15T15:07:26;22.63;;;17.13;;
18166;SDS011;9208;42.688;23.404;2023-02-15T15:10:00;20.90;;;16.70;;
18166;SDS011;9208;42.688;23.404;2023-02-15T15:15:10;19.50;;;16.37;;
18166;SDS011;9208;42.688;23.404;2023-02-15T15:22:38;21.23;;;16.63;;
18166;SDS011;9208;42.688;23.404;2023-02-15T15:28:52;22.23;;;16.97;;
18166;SDS011;9208;42.688;23.404;2023-02-15T15:31:00;21.03;;;16.80;;
18166;SDS011;9208;42.688;23.404;2023-02-15T15:33:46;20.80;;;17.03;;
18166;SDS011;9208;42.688;23.404;2023-02-15T15:45:08;26.30;;;20.03;;
18166;SDS011;9208;42.688;23.404;2023-02-15T15:50:51;23.53;;;18.87;;
18166;SDS011;9208;42.688;23.404;2023-02-15T15:53:23;25.03;;;19.63;;
18166;SDS011;9208;42.688;23.404;2023-02-15T15:55:50;23.77;;;19.10;;
18166;SDS011;9208;42.688;23.404;2023-02-15T15:58:21;26.63;;;18.93;;
18166;SDS011;9208;42.688;23.404;2023-02-15T16:00:52;24.17;;;18.27;;
18166;SDS011;9208;42.688;23.404;2023-02-15T16:03:28;30.03;;;21.50;;
18166;SDS011;9208;42.688;23.404;2023-02-15T16:05:54;29.87;;;22.10;;
18166;SDS011;9208;42.688;23.404;2023-02-15T16:11:10;30.60;;;21.57;;
18166;SDS011;9208;42.688;23.404;2023-02-15T16:13:41;30.70;;;20.30;;
18166;SDS011;9208;42.688;23.404;2023-02-15T16:16:08;30.87;;;19.57;;
18166;SDS011;9208;42.688;23.404;2023-02-15T16:18:37;26.47;;;19.43;;
18166;SDS011;9208;42.688;23.404;2023-02-15T16:21:12;27.37;;;20.33;;
18166;SDS011;9208;42.688;23.404;2023-02-15T16:24:02;28.17;;;21.27;;
18166;SDS011;9208;42.688;23.404;2023-02-15T16:29:33;24.70;;;20.57;;
18166;SDS011;9208;42.688;23.404;2023-02-15T16:32:03;30.77;;;21.77;;
18166;SDS011;9208;42.688;23.404;2023-02-15T16:34:31;25.40;;;20.50;;
18166;SDS011;9208;42.688;23.404;2023-02-15T16:37:13;28.83;;;19.70;;
18166;SDS011;9208;42.688;23.404;2023-02-15T16:39:40;29.03;;;21.13;;
18166;SDS011;9208;42.688;23.404;2023-02-15T16:42:07;28.30;;;20.53;;
18166;SDS011;9208;42.688;23.404;2023-02-15T16:44:34;29.53;;;21.97;;
18166;SDS011;9208;42.688;23.404;2023-02-15T16:46:59;27.30;;;21.13;;
18166;SDS011;9208;42.688;23.404;2023-02-15T16:49:26;28.97;;;20.27;;
18166;SDS011;9208;42.688;23.404;2023-02-15T16:51:58;28.83;;;21.43;;
18166;SDS011;9208;42.688;23.404;2023-02-15T16:54:27;34.90;;;23.17;;
18166;SDS011;9208;42.688;23.404;2023-02-15T16:56:54;32.17;;;22.67;;
18166;SDS011;9208;42.688;23.404;2023-02-15T16:59:38;34.07;;;23.43;;
18166;SDS011;9208;42.688;23.404;2023-02-15T17:02:19;35.17;;;23.77;;
18166;SDS011;9208;42.688;23.404;2023-02-15T17:05:22;28.60;;;20.47;;
18166;SDS011;9208;42.688;23.404;2023-02-15T17:07:51;29.60;;;21.93;;
18166;SDS011;9208;42.688;23.404;2023-02-15T17:10:31;35.83;;;22.10;;
18166;SDS011;9208;42.688;23.404;2023-02-15T17:13:00;29.00;;;21.87;;
18166;SDS011;9208;42.688;23.404;2023-02-15T17:15:35;33.97;;;24.70;;
18166;SDS011;9208;42.688;23.404;2023-02-15T17:18:14;36.83;;;24.87;;
18166;SDS011;9208;42.688;23.404;2023-02-15T17:20:45;35.17;;;24.17;;
18166;SDS011;9208;42.688;23.404;2023-02-15T17:23:32;32.87;;;23.83;;
18166;SDS011;9208;42.688;23.404;2023-02-15T17:26:01;30.87;;;22.87;;
18166;SDS011;9208;42.688;23.404;2023-02-15T17:28:56;27.13;;;21.03;;
18166;SDS011;9208;42.688;23.404;2023-02-15T17:31:25;27.93;;;22.50;;
18166;SDS011;9208;42.688;23.404;2023-02-15T17:33:53;31.23;;;22.73;;
18166;SDS011;9208;42.688;23.404;2023-02-15T17:36:21;36.87;;;23.23;;
18166;SDS011;9208;42.688;23.404;2023-02-15T17:41:23;30.83;;;22.07;;
18166;SDS011;9208;42.688;23.404;2023-02-15T17:43:52;28.70;;;21.63;;
18166;SDS011;9208;42.688;23.404;2023-02-15T17:46:18;29.07;;;22.60;;
18166;SDS011;9208;42.688;23.404;2023-02-15T17:48:53;35.70;;;24.87;;
18166;SDS011;9208;42.688;23.404;2023-02-15T17:51:20;37.30;;;25.17;;
18166;SDS011;9208;42.688;23.404;2023-02-15T17:53:46;33.33;;;24.87;;
18166;SDS011;9208;42.688;23.404;2023-02-15T17:56:33;39.93;;;27.23;;
18166;SDS011;9208;42.688;23.404;2023-02-15T17:58:58;40.10;;;29.57;;
18166;SDS011;9208;42.688;23.404;2023-02-15T18:01:24;60.73;;;35.70;;
18166;SDS011;9208;42.688;23.404;2023-02-15T18:04:09;44.87;;;33.27;;
18166;SDS011;9208;42.688;23.404;2023-02-15T18:06:55;50.13;;;36.67;;
18166;SDS011;9208;42.688;23.404;2023-02-15T18:09:39;43.37;;;31.93;;
18166;SDS011;9208;42.688;23.404;2023-02-15T18:12:24;37.47;;;28.30;;
18166;SDS011;9208;42.688;23.404;2023-02-15T18:14:51;37.23;;;26.70;;
18166;SDS011;9208;42.688;23.404;2023-02-15T18:17:18;37.50;;;27.00;;
18166;SDS011;9208;42.688;23.404;2023-02-15T18:19:48;32.83;;;24.90;;